FW9243 Weather Reports


Display with metric or nautical units.
time (UTC)temp
F
wind
direction
speed
MPH
gust
MPH
rain 1hr
in
rain 24hr
in
rain mn
in
humidity
%
barometer
mb
20240225220906 50 240 7.0 13.0 0.03 0.35 0.30 90 1008.4
20240225220523 50 275 6.0 13.0 0.03 0.69 0.57 100 1008.5
20240225220410 50 312 6.0 10.0 0.01 0.33 0.28 90 1008.5
20240225220028 50 303 3.0 10.0 0.01 0.67 0.55 100 1008.3
20240225215907 51 1 3.0 10.0 0.01 0.34 0.28 89 1008.2
20240225215900 51 293 5.0 12.0 0.00 0.34 0.28 88 1008.2
20240225215524 50 9 4.0 12.0 0.00 0.77 0.55 100 1008.1
20240225215411 51 293 5.0 12.0 0.00 0.34 0.28 88 1008.2
20240225215205 51 14 5.0 12.0 0.01 0.35 0.28 87 1008.0
20240225215024 50 250 3.0 12.0 0.01 0.77 0.55 100 1008.0
20240225214525 50 280 4.0 13.0 0.01 0.77 0.55 100 1007.8
20240225214412 51 310 4.0 13.0 0.01 0.35 0.28 87 1007.8
20240225214022 51 221 8.0 13.0 0.01 0.77 0.55 100 1007.8
20240225213902 51 331 6.0 13.0 0.01 0.35 0.28 86 1007.9
20240225213526 51 311 4.0 12.0 0.01 0.77 0.55 100 1007.6
20240225213414 51 266 7.0 12.0 0.01 0.36 0.28 87 1007.7
20240225213125 51 350 8.0 13.0 0.01 0.37 0.28 89 1007.4
20240225213024 51 314 5.0 13.0 0.01 0.77 0.55 100 1007.6
20240225212902 51 274 7.0 13.0 0.01 0.36 0.28 87 1007.6
20240225212859 51 350 8.0 13.0 0.01 0.37 0.28 89 1007.4
20240225212636 51 350 8.0 13.0 0.01 0.37 0.28 89 1007.4
20240225212524 50 282 7.0 13.0 0.01 0.77 0.55 100 1007.5
20240225212023 50 282 5.0 13.0 0.00 0.76 0.54 100 1007.4
20240225211901 51 226 6.0 13.0 0.00 0.37 0.27 90 1007.4
20240225211859 50 305 4.0 11.0 0.01 0.37 0.27 92 1007.2
20240225211636 50 305 4.0 11.0 0.01 0.37 0.27 92 1007.2
20240225211525 50 302 5.0 13.0 0.01 0.76 0.54 100 1007.4
20240225211417 51 265 5.0 12.0 0.02 0.37 0.27 92 1007.1
20240225211411 50 305 4.0 11.0 0.01 0.37 0.27 92 1007.2
20240225211151 51 265 5.0 12.0 0.02 0.37 0.27 92 1007.1
20240225211025 50 298 4.0 13.0 0.03 0.76 0.54 100 1007.3
20240225210631 51 248 7.0 12.0 0.02 0.38 0.27 92 1006.9
20240225210523 50 313 5.0 12.0 0.03 0.76 0.54 100 1007.1
20240225210415 51 248 7.0 12.0 0.02 0.38 0.27 92 1006.9
20240225210025 50 325 6.0 12.0 0.03 0.76 0.54 100 1006.9
20240225205906 51 296 5.0 12.0 0.02 0.38 0.27 92 1006.8
20240225205523 50 254 7.0 12.0 0.03 0.81 0.54 100 1006.8
20240225205338 51 330 6.0 9.0 0.02 0.38 0.27 94 1006.8
20240225205111 51 238 4.0 10.0 0.02 0.39 0.27 93 1006.5
20240225205023 50 227 3.0 10.0 0.03 0.81 0.53 100 1006.6
20240225204527 50 244 3.0 10.0 0.03 0.81 0.53 100 1006.6
20240225204336 51 303 5.0 10.0 0.02 0.39 0.27 93 1006.6
20240225204025 50 254 4.0 9.0 0.03 0.81 0.53 100 1006.7
20240225203832 51 296 4.0 7.0 0.02 0.39 0.27 93 1006.5
20240225203605 51 1 3.0 9.0 0.02 0.39 0.27 92 1006.4
20240225203523 50 245 2.0 11.0 0.03 0.81 0.53 100 1006.6
20240225203100 51 309 4.0 13.0 0.02 0.39 0.27 92 1006.5
20240225203027 51 218 3.0 13.0 0.03 0.81 0.53 100 1006.6
20240225202839 51 309 4.0 13.0 0.02 0.39 0.27 92 1006.5
20240225202524 51 317 7.0 13.0 0.03 0.81 0.53 100 1006.6
20240225202329 51 271 9.0 13.0 0.02 0.40 0.27 91 1006.5
20240225202145 52 234 2.0 7.0 0.01 0.39 0.26 91 1005.8
20240225202027 51 324 9.0 12.0 0.02 0.40 0.27 92 1006.2
20240225202025 51 330 7.0 12.0 0.03 0.81 0.53 100 1006.6
20240225201807 52 310 3.0 6.0 0.01 0.39 0.26 92 1006.2
20240225201558 52 234 2.0 7.0 0.01 0.39 0.26 91 1005.8
20240225201549 52 310 3.0 6.0 0.01 0.39 0.26 92 1006.2
20240225201527 51 265 3.0 9.0 0.02 0.80 0.52 100 1006.6
20240225201340 52 234 2.0 7.0 0.01 0.39 0.26 91 1005.8
20240225201327 52 310 3.0 6.0 0.01 0.39 0.26 92 1006.2
20240225201110 52 234 2.0 7.0 0.01 0.39 0.26 91 1005.8
20240225201026 51 205 2.0 7.0 0.01 0.78 0.51 100 1006.0
20240225200524 51 237 3.0 9.0 0.01 0.78 0.51 100 1006.0
20240225200321 52 259 4.0 7.0 0.01 0.39 0.26 91 1005.9
20240225200034 51 221 3.0 9.0 0.01 0.78 0.51 100 1006.1
20240225195821 52 227 4.0 7.0 0.01 0.39 0.26 91 1005.9
20240225195808 52 231 3.0 6.0 0.00 0.40 0.25 90 1005.9
20240225195548 52 231 3.0 6.0 0.00 0.40 0.25 90 1005.9
20240225195523 51 252 3.0 6.0 0.00 0.82 0.50 100 1006.1
20240225195519 52 262 3.0 5.0 0.00 0.39 0.25 90 1006.0
20240225195046 52 231 3.0 6.0 0.00 0.40 0.25 90 1005.9
20240225195023 51 205 2.0 7.0 0.00 0.82 0.50 100 1006.0
20240225194823 52 231 3.0 6.0 0.00 0.40 0.25 90 1005.9
20240225194525 51 252 2.0 10.0 0.00 0.82 0.50 100 1006.1
20240225194320 52 306 3.0 10.0 0.00 0.40 0.25 90 1006.2
20240225194025 51 265 4.0 10.0 0.00 0.82 0.50 100 1006.3
20240225193829 52 227 4.0 10.0 0.00 0.40 0.25 91 1006.2
20240225193523 51 254 2.0 7.0 0.00 0.82 0.50 100 1006.4
20240225193325 52 286 2.0 6.0 0.00 0.40 0.25 91 1006.2
20240225193048 51 247 2.0 7.0 0.00 0.82 0.50 100 1006.4
20240225192829 52 223 2.0 6.0 0.00 0.41 0.25 91 1006.1
20240225192820 52 319 3.0 6.0 0.00 0.41 0.25 90 1006.1
20240225192606 52 319 3.0 6.0 0.00 0.41 0.25 90 1006.1
20240225192523 51 265 2.0 7.0 0.00 0.82 0.50 100 1006.3
20240225192052 51 255 4.0 6.0 0.00 0.41 0.25 90 1006.0
20240225192026 51 240 3.0 6.0 0.00 0.82 0.50 100 1006.1
20240225191829 51 255 4.0 6.0 0.00 0.41 0.25 90 1006.0
20240225191526 51 230 2.0 8.0 0.00 0.82 0.50 100 1006.2
20240225191323 52 189 2.0 5.0 0.00 0.41 0.25 90 1006.0
20240225191102 52 255 3.0 7.0 0.00 0.41 0.25 90 1006.1
20240225191049 52 206 3.0 7.0 0.00 0.41 0.25 91 1006.0
20240225191023 51 221 2.0 8.0 0.00 0.81 0.49 100 1006.1
20240225190835 52 255 3.0 7.0 0.00 0.41 0.25 90 1006.1
20240225190830 52 206 3.0 7.0 0.00 0.41 0.25 91 1006.0
20240225190527 51 252 3.0 8.0 0.00 0.81 0.49 100 1006.2
20240225190326 52 219 3.0 7.0 0.00 0.41 0.25 90 1005.7
20240225190101 52 219 3.0 7.0 0.00 0.41 0.25 90 1005.7
20240225190034 51 221 3.0 9.0 0.00 0.81 0.49 100 1005.9
20240225185826 52 219 3.0 7.0 0.00 0.41 0.25 90 1005.7
20240225185601 52 289 4.0 6.0 0.00 0.41 0.25 89 1005.8
20240225185523 51 239 3.0 9.0 0.00 0.82 0.49 100 1005.9
20240225185329 52 289 4.0 6.0 0.00 0.41 0.25 89 1005.8
20240225185130 52 220 3.0 6.0 0.00 0.41 0.25 89 1005.7
20240225185023 51 252 3.0 9.0 0.00 0.82 0.49 100 1005.9
20240225184525 52 243 2.0 9.0 0.00 0.82 0.49 100 1005.9
20240225184323 52 244 2.0 7.0 0.00 0.41 0.25 89 1005.6
20240225184306 52 245 5.0 7.0 0.00 0.41 0.25 88 1005.6
20240225184047 52 245 5.0 7.0 0.00 0.41 0.25 88 1005.6
20240225184028 52 178 4.0 9.0 0.00 0.82 0.49 100 1005.6
20240225183821 52 245 5.0 7.0 0.00 0.41 0.25 88 1005.6
20240225183806 52 269 4.0 12.0 0.00 0.41 0.25 88 1005.5
20240225183526 52 294 3.0 12.0 0.00 0.82 0.49 100 1005.5
20240225183329 52 269 4.0 12.0 0.00 0.41 0.25 88 1005.5
20240225183031 52 257 4.0 12.0 0.00 0.82 0.49 100 1005.6
20240225182822 52 252 6.0 12.0 0.00 0.41 0.25 89 1005.5
20240225182526 52 137 4.0 10.0 0.00 0.82 0.49 100 1005.5
20240225182336 52 244 4.0 7.0 0.00 0.41 0.25 88 1005.4
20240225182055 52 251 4.0 6.0 0.00 0.41 0.25 88 1005.4
20240225182025 52 289 3.0 7.0 0.00 0.82 0.49 100 1005.5
20240225181809 52 178 3.0 6.0 0.00 0.41 0.25 88 1005.3
20240225181600 52 178 3.0 6.0 0.00 0.41 0.25 88 1005.3
20240225181550 52 307 1.0 8.0 0.00 0.82 0.49 100 1005.4
20240225181327 52 178 3.0 6.0 0.00 0.41 0.25 88 1005.3
20240225181101 52 223 5.0 6.0 0.00 0.41 0.25 87 1005.2
20240225181023 52 232 3.0 8.0 0.00 0.82 0.49 100 1005.3
20240225180804 53 216 4.0 10.0 0.00 0.41 0.25 88 1005.2
20240225180522 52 247 3.0 10.0 0.00 0.82 0.49 100 1005.3
20240225180325 53 216 4.0 10.0 0.00 0.41 0.25 88 1005.2
20240225180042 52 51 2.0 12.0 0.00 0.82 0.49 100 1005.3
20240225175820 53 223 3.0 12.0 0.00 0.41 0.25 87 1005.1
20240225175522 53 244 6.0 12.0 0.00 0.85 0.49 100 1005.2
20240225175329 53 258 6.0 12.0 0.00 0.42 0.25 86 1005.1
20240225175041 54 234 4.0 7.0 0.00 0.42 0.25 83 1005.1
20240225175026 53 250 4.0 8.0 0.00 0.85 0.49 100 1005.3
20240225174823 54 234 4.0 7.0 0.00 0.42 0.25 83 1005.1
20240225174528 54 239 3.0 8.0 0.00 0.85 0.49 100 1005.0
20240225174312 54 355 3.0 7.0 0.00 0.42 0.25 82 1004.8
20240225174023 54 212 3.0 10.0 0.00 0.85 0.49 100 1004.9
20240225173803 54 241 4.0 10.0 0.00 0.42 0.25 82 1004.7
20240225173526 54 221 2.0 10.0 0.00 0.85 0.49 100 1004.9
20240225173512 54 233 3.0 10.0 0.00 0.42 0.25 81 1004.8
20240225173305 54 202 3.0 10.0 0.00 0.42 0.25 81 1004.8
20240225173253 54 233 3.0 10.0 0.00 0.42 0.25 81 1004.8
20240225173044 54 233 3.0 10.0 0.00 0.42 0.25 81 1004.8
20240225173031 54 255 3.0 12.0 0.00 0.85 0.49 100 1004.9
20240225172529 54 321 5.0 10.0 0.00 0.42 0.25 81 1004.5
20240225172523 54 255 4.0 12.0 0.00 0.85 0.49 100 1004.9
20240225172313 54 321 5.0 10.0 0.00 0.42 0.25 81 1004.5
20240225172258 54 248 3.0 5.0 0.00 0.42 0.25 81 1004.8
20240225172037 54 248 3.0 5.0 0.00 0.42 0.25 81 1004.8
20240225172023 54 209 2.0 7.0 0.00 0.85 0.49 100 1004.8
20240225171806 54 248 3.0 5.0 0.00 0.42 0.25 81 1004.8
20240225171537 54 239 2.0 7.0 0.00 0.85 0.49 100 1004.8
20240225171523 54 145 3.0 5.0 0.00 0.42 0.25 81 1004.7
20240225171517 54 223 2.0 9.0 0.00 0.43 0.25 81 1004.7
20240225171308 54 145 3.0 5.0 0.00 0.42 0.25 81 1004.7
20240225171259 54 223 2.0 9.0 0.00 0.43 0.25 81 1004.7
20240225171023 54 221 2.0 9.0 0.00 0.85 0.49 100 1004.7
20240225170807 54 223 2.0 9.0 0.00 0.43 0.25 81 1004.7
20240225170523 54 244 2.0 12.0 0.00 0.85 0.49 100 1004.8
20240225170304 54 223 4.0 12.0 0.00 0.43 0.25 82 1004.7
20240225170027 54 193 2.0 12.0 0.00 0.85 0.49 100 1004.9
20240225165810 54 314 4.0 12.0 0.00 0.43 0.25 82 1004.8
20240225165523 54 234 5.0 12.0 0.00 0.85 0.49 100 1004.8
20240225165306 54 234 6.0 9.0 0.00 0.43 0.25 82 1004.4
20240225165024 54 201 4.0 13.0 0.00 0.85 0.49 100 1004.6
20240225164805 55 276 5.0 13.0 0.00 0.43 0.25 81 1004.3
20240225164524 54 265 5.0 13.0 0.00 0.85 0.49 100 1004.5
20240225164307 55 265 5.0 13.0 0.00 0.43 0.25 80 1004.3
20240225164022 55 259 5.0 13.0 0.00 0.85 0.49 99 1004.5
20240225163802 55 238 5.0 10.0 0.00 0.43 0.25 80 1004.1
20240225163523 55 244 3.0 11.0 0.00 0.85 0.49 99 1004.3
20240225163305 55 202 5.0 12.0 0.00 0.43 0.25 79 1004.1
20240225163023 55 250 3.0 14.0 0.00 0.85 0.49 100 1004.2
20240225162801 55 247 4.0 14.0 0.00 0.43 0.25 81 1004.1
20240225162522 55 248 6.0 14.0 0.00 0.85 0.49 99 1004.3
20240225162315 55 251 9.0 14.0 0.00 0.43 0.25 79 1004.1
20240225162022 55 242 3.0 10.0 0.00 0.85 0.49 98 1004.2
20240225161803 55 341 5.0 10.0 0.00 0.43 0.25 79 1003.9
20240225161527 55 225 3.0 14.0 0.00 0.85 0.49 78 1004.1
20240225161303 55 237 4.0 14.0 0.00 0.43 0.25 78 1003.9
20240225161022 55 301 3.0 14.0 0.00 0.85 0.49 97 1004.1
20240225160804 55 283 5.0 14.0 0.00 0.43 0.25 79 1003.9
20240225160522 55 229 3.0 12.0 0.00 0.85 0.49 99 1004.0
20240225160309 55 269 4.0 12.0 0.00 0.43 0.25 80 1003.8
20240225160023 54 34 3.0 17.0 0.00 0.85 0.49 100 1004.0
20240225155804 55 241 4.0 13.0 0.00 0.43 0.25 80 1003.6
20240225155523 54 300 4.0 17.0 0.00 0.85 0.49 99 1003.7
20240225155307 55 216 4.0 14.0 0.00 0.43 0.25 80 1003.4
20240225155022 54 269 5.0 15.0 0.00 0.85 0.49 99 1003.8
20240225154804 55 10 6.0 14.0 0.00 0.43 0.25 80 1003.5
20240225154526 54 304 6.0 17.0 0.00 0.85 0.49 100 1003.7
20240225154312 55 293 5.0 17.0 0.00 0.43 0.25 79 1003.5
20240225154023 54 246 5.0 17.0 0.00 0.85 0.49 78 1003.5
20240225153802 55 241 4.0 17.0 0.00 0.43 0.25 79 1003.3
20240225153526 54 323 8.0 20.0 0.00 0.85 0.49 98 1003.6
20240225153310 55 230 7.0 15.0 0.00 0.43 0.25 78 1003.5
20240225153024 54 271 4.0 21.0 0.00 0.85 0.49 78 1003.5
20240225152802 55 233 6.0 16.0 0.00 0.43 0.25 79 1003.3
20240225152529 55 272 5.0 19.0 0.00 0.43 0.25 79 1003.4
20240225152525 54 281 7.0 21.0 0.00 0.85 0.49 98 1003.6
20240225152313 55 272 5.0 19.0 0.00 0.43 0.25 79 1003.4
20240225152023 54 291 7.0 19.0 0.00 0.85 0.49 98 1003.5
20240225151801 55 331 9.0 19.0 0.00 0.43 0.25 79 1003.2
20240225151539 54 214 7.0 19.0 0.00 0.85 0.49 98 1003.4
20240225151529 54 269 7.0 15.0 0.00 0.43 0.25 78 1003.1
20240225151310 54 269 7.0 15.0 0.00 0.43 0.25 78 1003.1
20240225151023 54 342 8.0 19.0 0.00 0.85 0.49 98 1003.6
20240225150802 54 272 11.0 16.0 0.00 0.43 0.25 78 1003.3
20240225150522 54 254 7.0 19.0 0.00 0.85 0.49 99 1003.4
20240225150309 54 244 6.0 18.0 0.00 0.43 0.25 80 1003.1
20240225150033 54 344 6.0 19.0 0.00 0.85 0.49 100 1003.3
20240225145802 55 240 6.0 19.0 0.00 0.43 0.25 81 1003.0
20240225145527 55 265 8.0 20.0 0.01 0.43 0.25 82 1003.0
20240225145317 55 265 8.0 20.0 0.01 0.43 0.25 82 1003.0
20240225145022 54 288 8.0 23.0 0.01 0.86 0.49 100 1003.2
20240225144801 54 289 10.0 20.0 0.01 0.43 0.25 81 1002.8
20240225144534 54 310 5.0 14.0 0.01 0.86 0.49 100 1003.2
20240225144306 54 331 6.0 14.0 0.01 0.43 0.25 84 1002.6
20240225144027 54 233 7.0 14.0 0.01 0.86 0.49 100 1002.8
20240225143801 54 305 9.0 14.0 0.01 0.43 0.25 88 1002.4
20240225143526 54 254 6.0 16.0 0.01 0.86 0.49 100 1002.8
20240225143313 54 230 9.0 16.0 0.01 0.43 0.25 88 1002.3
20240225143305 54 255 6.0 16.0 0.01 0.43 0.25 88 1002.5
20240225143117 54 230 9.0 16.0 0.01 0.43 0.25 88 1002.3
20240225143024 54 240 6.0 16.0 0.02 0.86 0.49 100 1002.7
20240225142805 54 230 9.0 16.0 0.01 0.43 0.25 88 1002.3
20240225142529 55 213 7.0 16.0 0.02 0.43 0.25 92 1002.2
20240225142523 54 272 7.0 16.0 0.03 0.86 0.49 100 1002.6
20240225142310 55 213 7.0 16.0 0.02 0.43 0.25 92 1002.2
20240225142022 54 219 7.0 16.0 0.04 0.86 0.49 100 1002.7
20240225141801 55 307 7.0 16.0 0.03 0.43 0.25 92 1002.4
20240225141526 54 310 8.0 15.0 0.07 0.86 0.49 100 1002.5
20240225141308 55 306 7.0 16.0 0.04 0.43 0.25 93 1002.3
20240225141023 55 292 5.0 16.0 0.07 0.85 0.48 100 1002.5
20240225140818 55 276 6.0 16.0 0.04 0.43 0.24 93 1002.2
20240225140808 56 310 7.0 15.0 0.04 0.43 0.24 94 1002.1
20240225140523 55 329 7.0 16.0 0.08 0.85 0.48 100 1002.5
20240225140026 55 292 3.0 12.0 0.09 0.85 0.48 100 1002.5
20240225135752 55 299 6.0 12.0 0.04 0.43 0.24 94 1001.8
20240225135532 55 299 6.0 12.0 0.04 0.43 0.24 94 1001.8
20240225135522 55 284 7.0 14.0 0.09 0.86 0.48 100 1002.0
20240225135308 55 299 6.0 12.0 0.04 0.43 0.24 94 1001.8
20240225135023 55 9 8.0 14.0 0.09 0.85 0.48 100 1002.0
20240225134804 55 257 8.0 15.0 0.05 0.43 0.24 94 1001.8
20240225134535 55 296 7.0 17.0 0.05 0.43 0.24 93 1001.6
20240225134525 55 287 5.0 17.0 0.09 0.85 0.48 100 1001.9
20240225134025 55 273 9.0 16.0 0.10 0.85 0.48 100 1001.8
20240225133802 55 234 9.0 17.0 0.05 0.43 0.24 93 1001.6
20240225133522 55 267 9.0 15.0 0.11 0.85 0.48 100 1001.7
20240225133307 56 316 7.0 13.0 0.05 0.43 0.24 93 1001.7
20240225133022 56 286 8.0 14.0 0.10 0.85 0.47 100 1001.8
20240225132803 57 314 8.0 13.0 0.06 0.42 0.24 94 1001.7
20240225132524 57 262 6.0 13.0 0.10 0.84 0.46 100 1001.7
20240225132306 57 323 6.0 13.0 0.05 0.42 0.23 95 1001.4
20240225132022 57 257 8.0 13.0 0.09 0.82 0.44 100 1001.4
20240225131802 57 230 9.0 13.0 0.05 0.41 0.22 95 1001.0
20240225131542 57 226 7.0 12.0 0.07 0.79 0.41 100 1001.3
20240225131310 57 269 7.0 11.0 0.04 0.40 0.21 95 1001.1
20240225131022 57 227 5.0 10.0 0.07 0.78 0.40 100 1001.3
20240225131000 57 237 4.0 12.0 0.03 0.39 0.20 95 1001.1
20240225130803 57 233 5.0 10.0 0.04 0.39 0.20 95 1001.0
20240225130735 57 237 4.0 12.0 0.03 0.39 0.20 95 1001.1
20240225130522 57 250 3.0 11.0 0.06 0.77 0.40 100 1001.2
20240225130308 57 214 4.0 11.0 0.04 0.39 0.20 95 1001.1
20240225130255 57 237 4.0 12.0 0.03 0.39 0.20 95 1001.1
20240225130034 57 237 4.0 12.0 0.03 0.39 0.20 95 1001.1
20240225130026 57 211 5.0 12.0 0.06 0.77 0.39 100 1001.2
20240225125805 57 237 4.0 12.0 0.03 0.39 0.20 95 1001.1
20240225125539 57 241 3.0 12.0 0.04 0.39 0.20 95 1001.2
20240225125522 57 205 4.0 12.0 0.06 0.77 0.39 100 1001.3
20240225125022 57 225 6.0 12.0 0.06 0.76 0.38 100 1001.4
20240225124802 57 262 4.0 11.0 0.03 0.38 0.19 95 1001.2
20240225124521 56 252 6.0 11.0 0.06 0.75 0.37 100 1001.5
20240225124303 57 252 7.0 12.0 0.03 0.38 0.19 95 1001.3
20240225124024 56 210 5.0 12.0 0.06 0.75 0.37 100 1001.6
20240225123802 57 223 4.0 12.0 0.04 0.37 0.19 96 1001.4
20240225123522 56 211 5.0 12.0 0.06 0.74 0.37 100 1001.6
20240225123307 57 230 4.0 10.0 0.03 0.37 0.19 96 1001.5
20240225123023 56 221 4.0 10.0 0.07 0.74 0.37 100 1001.6
20240225122804 57 234 4.0 10.0 0.03 0.37 0.18 96 1001.5
20240225122529 57 223 4.0 10.0 0.03 0.37 0.18 95 1001.7
20240225122522 56 325 4.0 10.0 0.06 0.74 0.36 100 1001.8
20240225122323 57 223 4.0 10.0 0.03 0.37 0.18 95 1001.7
20240225122023 56 200 3.0 9.0 0.06 0.72 0.34 100 1001.8
20240225121803 57 193 4.0 9.0 0.03 0.36 0.17 95 1001.7
20240225121526 56 184 3.0 12.0 0.07 0.72 0.34 100 1002.1
20240225121309 57 227 3.0 12.0 0.04 0.36 0.17 95 1001.8
20240225121023 56 218 4.0 12.0 0.07 0.71 0.33 100 1002.0
20240225120802 57 238 5.0 12.0 0.04 0.36 0.17 95 1001.9
20240225120523 56 247 5.0 12.0 0.07 0.71 0.33 100 1002.1
20240225120309 57 227 5.0 13.0 0.04 0.35 0.17 95 1001.9
20240225120023 56 238 5.0 12.0 0.07 0.70 0.33 100 1002.1
20240225115804 57 240 6.0 13.0 0.04 0.35 0.17 95 1001.9
20240225115522 56 255 4.0 10.0 0.08 0.74 0.33 100 1002.3
20240225115309 57 178 4.0 10.0 0.04 0.35 0.16 95 1001.9
20240225115024 56 236 4.0 10.0 0.09 0.73 0.32 100 1002.3
20240225114803 57 209 6.0 11.0 0.05 0.35 0.16 95 1002.1
20240225114523 56 242 4.0 12.0 0.09 0.72 0.31 100 1002.4
20240225114308 57 223 6.0 12.0 0.05 0.35 0.16 95 1002.0
20240225114029 57 230 5.0 12.0 0.05 0.35 0.15 95 1002.1
20240225114022 56 237 3.0 12.0 0.09 0.72 0.31 100 1002.4
20240225113808 57 230 5.0 12.0 0.05 0.35 0.15 95 1002.1
20240225113523 56 226 4.0 10.0 0.09 0.71 0.30 100 1002.3
20240225113307 57 223 4.0 10.0 0.05 0.36 0.15 95 1002.2
20240225113033 56 240 4.0 10.0 0.08 0.70 0.29 100 1002.4
20240225112806 57 206 5.0 11.0 0.04 0.35 0.15 95 1002.2
20240225112522 56 239 4.0 11.0 0.07 0.70 0.29 100 1002.5
20240225112316 57 240 4.0 11.0 0.03 0.34 0.13 96 1002.4
20240225112309 57 188 5.0 11.0 0.04 0.35 0.15 96 1002.3
20240225112023 56 228 5.0 12.0 0.07 0.69 0.28 100 1002.5
20240225112009 57 248 6.0 11.0 0.04 0.35 0.14 96 1002.3
20240225111757 57 195 4.0 13.0 0.03 0.34 0.13 96 1002.5
20240225111528 57 195 4.0 13.0 0.03 0.34 0.13 96 1002.5
20240225111300 57 195 4.0 13.0 0.03 0.34 0.13 96 1002.5
20240225111038 57 195 4.0 13.0 0.03 0.34 0.13 96 1002.5
20240225111022 56 215 4.0 13.0 0.06 0.67 0.26 100 1002.7
20240225110521 56 215 4.0 13.0 0.06 0.67 0.26 100 1002.8
20240225110308 57 234 3.0 13.0 0.03 0.33 0.13 96 1002.6
20240225110029 56 233 4.0 13.0 0.05 0.66 0.25 100 1002.8
20240225105802 57 199 3.0 10.0 0.03 0.33 0.13 96 1002.7
20240225105525 56 225 5.0 10.0 0.04 0.65 0.24 100 1003.0
20240225105307 57 185 5.0 10.0 0.02 0.32 0.12 96 1002.8
20240225105023 56 227 4.0 11.0 0.03 0.63 0.22 100 1002.9
20240225104802 57 228 4.0 11.0 0.02 0.31 0.11 96 1002.7
20240225104745 56 238 4.0 13.0 0.02 0.31 0.11 95 1002.7
20240225104529 56 227 4.0 13.0 0.03 0.62 0.22 100 1002.9
20240225104306 56 238 4.0 13.0 0.02 0.31 0.11 95 1002.7
20240225104023 56 243 4.0 13.0 0.03 0.62 0.22 100 1002.9
20240225103803 56 241 4.0 13.0 0.01 0.31 0.11 95 1002.7
20240225103524 56 230 5.0 13.0 0.02 0.62 0.21 100 1003.0
20240225103309 56 259 4.0 9.0 0.02 0.31 0.11 96 1002.7
20240225103027 56 178 4.0 11.0 0.03 0.62 0.21 100 1003.0
20240225102802 56 213 5.0 11.0 0.02 0.31 0.11 96 1002.8
20240225102522 56 198 3.0 11.0 0.03 0.62 0.21 100 1003.1
20240225102305 56 223 5.0 11.0 0.01 0.31 0.10 96 1002.9
20240225102021 56 198 4.0 11.0 0.02 0.61 0.20 100 1003.1
20240225101802 56 227 4.0 11.0 0.02 0.31 0.10 96 1003.1
20240225101540 56 183 4.0 12.0 0.02 0.31 0.10 96 1003.2
20240225101529 56 225 3.0 12.0 0.03 0.61 0.20 100 1003.3
20240225101032 56 223 6.0 12.0 0.02 0.31 0.10 96 1003.3
20240225101025 56 261 4.0 11.0 0.03 0.61 0.20 100 1003.4
20240225100526 55 245 3.0 11.0 0.03 0.61 0.20 100 1003.5
20240225100307 56 171 4.0 11.0 0.02 0.30 0.10 95 1003.4
20240225100029 55 225 6.0 11.0 0.03 0.60 0.19 100 1003.5
20240225095802 56 227 6.0 10.0 0.02 0.30 0.10 95 1003.4
20240225095524 55 158 2.0 8.0 0.03 0.64 0.18 100 1003.6
20240225095307 56 237 4.0 9.0 0.02 0.30 0.09 95 1003.4
20240225095025 55 208 3.0 9.0 0.03 0.64 0.18 100 1003.6
20240225094805 56 248 3.0 12.0 0.02 0.30 0.09 95 1003.4
20240225094530 55 225 3.0 13.0 0.04 0.64 0.18 100 1003.6
20240225094303 56 220 4.0 13.0 0.03 0.31 0.09 95 1003.5
20240225094025 55 185 5.0 13.0 0.05 0.64 0.18 100 1003.8
20240225093806 56 45 4.0 13.0 0.03 0.32 0.09 95 1003.6
20240225093525 55 232 3.0 12.0 0.06 0.64 0.18 100 1003.8
20240225093305 55 240 4.0 11.0 0.03 0.32 0.09 95 1003.6
20240225093033 55 201 3.0 12.0 0.06 0.63 0.18 100 1003.9
20240225093029 55 209 3.0 11.0 0.03 0.32 0.09 95 1003.9
20240225092805 55 209 3.0 11.0 0.03 0.32 0.09 95 1003.9
20240225092524 55 201 4.0 12.0 0.07 0.63 0.18 100 1003.9
20240225092301 55 241 4.0 12.0 0.04 0.32 0.09 95 1003.8
20240225092024 55 238 3.0 14.0 0.07 0.62 0.17 100 1004.1
20240225091802 55 206 4.0 12.0 0.04 0.31 0.09 95 1004.0
20240225091528 55 236 5.0 14.0 0.07 0.62 0.17 100 1004.2
20240225091303 55 227 4.0 10.0 0.04 0.31 0.09 95 1004.1
20240225091024 55 195 3.0 11.0 0.07 0.62 0.17 100 1004.3
20240225090802 55 178 5.0 11.0 0.04 0.31 0.09 95 1004.1
20240225090524 55 229 2.0 12.0 0.07 0.62 0.16 100 1004.4
20240225090305 55 209 3.0 12.0 0.04 0.31 0.08 95 1004.2
20240225090026 55 205 4.0 12.0 0.07 0.61 0.15 100 1004.4
20240225085802 55 255 6.0 12.0 0.04 0.31 0.08 94 1004.2
20240225085524 55 225 4.0 11.0 0.07 0.61 0.15 100 1004.5
20240225085305 55 223 4.0 11.0 0.04 0.30 0.07 94 1004.3
20240225085024 54 188 3.0 11.0 0.07 0.60 0.14 100 1004.6
20240225084802 55 197 3.0 11.0 0.03 0.30 0.07 94 1004.3
20240225084527 54 178 2.0 11.0 0.06 0.59 0.14 100 1004.7
20240225084302 55 238 3.0 11.0 0.03 0.30 0.07 94 1004.7
20240225084024 55 202 4.0 11.0 0.05 0.59 0.13 100 1004.8
20240225083801 55 45 3.0 11.0 0.03 0.30 0.07 93 1004.4
20240225083524 55 202 5.0 11.0 0.04 0.58 0.12 100 1004.7
20240225083302 55 206 6.0 11.0 0.02 0.29 0.06 93 1004.5
20240225083028 55 193 3.0 13.0 0.03 0.57 0.11 100 1004.8
20240225082802 55 230 4.0 13.0 0.02 0.28 0.06 93 1004.7
20240225082530 55 212 6.0 13.0 0.02 0.28 0.06 92 1004.5
20240225082026 55 257 3.0 9.0 0.02 0.55 0.10 100 1004.7
20240225081804 55 189 4.0 9.0 0.01 0.28 0.05 91 1004.7
20240225081529 55 243 3.0 9.0 0.01 0.55 0.09 100 1004.8
20240225081304 55 216 4.0 7.0 0.01 0.28 0.05 91 1004.7
20240225081023 55 175 2.0 11.0 0.01 0.55 0.09 100 1004.7
20240225080802 56 149 3.0 13.0 0.01 0.28 0.05 90 1004.7
20240225080529 56 214 4.0 13.0 0.00 0.27 0.04 90 1004.7
20240225080524 55 205 3.0 12.0 0.00 0.54 0.08 100 1004.6
20240225080024 55 163 4.0 13.0 0.00 0.54 0.08 100 1004.7
20240225075802 56 213 5.0 12.0 0.00 0.27 0.04 89 1004.5
20240225075524 56 201 3.0 13.0 0.00 0.55 0.07 100 1004.9
20240225075306 56 117 3.0 11.0 0.00 0.27 0.04 89 1005.0
20240225075025 56 207 3.0 11.0 0.00 0.55 0.07 100 1005.0
20240225074802 56 202 5.0 10.0 0.00 0.27 0.04 88 1005.1
20240225074527 56 243 3.0 12.0 0.00 0.55 0.07 100 1005.1
20240225074301 56 216 3.0 11.0 0.00 0.27 0.04 88 1005.1
20240225074024 56 188 2.0 12.0 0.00 0.55 0.07 100 1005.4
20240225073801 56 240 4.0 12.0 0.00 0.27 0.04 89 1005.4
20240225073525 55 223 3.0 12.0 0.00 0.55 0.07 100 1005.7
20240225073301 56 216 3.0 12.0 0.00 0.28 0.04 90 1005.4
20240225073048 55 8 4.0 11.0 0.00 0.28 0.04 90 1005.4
20240225073033 55 227 5.0 12.0 0.00 0.55 0.07 100 1005.6
20240225072524 55 219 4.0 12.0 0.00 0.55 0.07 100 1005.7
20240225072518 55 209 3.0 9.0 0.00 0.28 0.04 92 1005.5
20240225072038 55 178 3.0 5.0 0.00 0.28 0.04 92 1005.6
20240225072024 54 165 3.0 11.0 0.00 0.55 0.07 100 1005.7
20240225071806 55 178 3.0 5.0 0.00 0.28 0.04 92 1005.6
20240225071526 54 215 3.0 11.0 0.00 0.55 0.07 100 1005.8
20240225071301 55 212 3.0 5.0 0.00 0.28 0.04 92 1005.8
20240225071101 55 204 3.0 7.0 0.00 0.28 0.04 91 1006.0
20240225071024 54 254 3.0 10.0 0.00 0.55 0.07 100 1005.9
20240225070526 54 221 2.0 10.0 0.00 0.55 0.07 100 1006.0
20240225070239 55 257 3.0 7.0 0.00 0.28 0.04 91 1006.0
20240225070029 54 221 1.0 6.0 0.00 0.55 0.07 100 1006.1
20240225065748 54 206 2.0 5.0 0.00 0.28 0.04 91 1006.1
20240225065525 54 0 2.0 8.0 0.00 0.59 0.07 100 1006.2
20240225065241 54 164 2.0 5.0 0.00 0.28 0.04 91 1006.2
20240225065024 54 178 2.0 9.0 0.00 0.59 0.07 100 1006.3
20240225064743 54 231 2.0 6.0 0.00 0.28 0.04 91 1006.2
20240225064539 54 195 3.0 9.0 0.00 0.59 0.07 100 1006.4
20240225064233 54 168 3.0 9.0 0.00 0.28 0.04 91 1006.3
20240225064024 54 211 2.0 9.0 0.00 0.59 0.07 100 1006.5
20240225063952 54 147 2.0 9.0 0.00 0.28 0.04 91 1006.3
20240225063745 54 147 2.0 9.0 0.00 0.28 0.04 91 1006.3
20240225063524 54 239 2.0 9.0 0.00 0.59 0.07 100 1006.4
20240225063501 54 188 2.0 7.0 0.00 0.29 0.04 91 1006.4
20240225063234 54 188 2.0 7.0 0.00 0.29 0.04 91 1006.4
20240225063213 54 213 3.0 7.0 0.00 0.29 0.04 90 1006.6
20240225063042 54 221 2.0 11.0 0.00 0.59 0.07 100 1006.5
20240225062958 54 213 3.0 7.0 0.00 0.29 0.04 90 1006.6
20240225062734 54 213 3.0 7.0 0.00 0.29 0.04 90 1006.6
20240225062523 54 247 3.0 11.0 0.00 0.59 0.07 100 1006.7
20240225062222 54 234 3.0 10.0 0.00 0.29 0.04 90 1006.8
20240225062202 54 223 3.0 12.0 0.00 0.29 0.04 90 1006.9
20240225062023 54 223 1.0 12.0 0.00 0.59 0.07 100 1006.9
20240225061949 54 223 3.0 12.0 0.00 0.29 0.04 90 1006.9
20240225061701 54 237 6.0 12.0 0.00 0.29 0.04 90 1006.9
20240225061529 54 210 3.0 12.0 0.00 0.59 0.07 100 1006.9
20240225061445 54 237 6.0 12.0 0.00 0.29 0.04 90 1006.9
20240225061229 54 237 6.0 12.0 0.00 0.29 0.04 90 1006.9
20240225061025 53 239 4.0 10.0 0.00 0.59 0.07 100 1007.0
20240225060724 54 228 4.0 10.0 0.00 0.29 0.04 90 1006.9
20240225060526 53 219 3.0 10.0 0.00 0.59 0.07 100 1006.9
20240225060218 54 250 4.0 10.0 0.00 0.29 0.04 91 1006.8
20240225060030 53 178 3.0 13.0 0.00 0.59 0.07 100 1006.9
20240225055719 54 241 3.0 13.0 0.00 0.30 0.04 91 1006.9
20240225055523 53 252 3.0 13.0 0.01 0.60 0.07 100 1007.0
20240225055222 53 223 4.0 13.0 0.01 0.30 0.04 92 1007.0
20240225055024 53 193 3.0 10.0 0.01 0.60 0.07 100 1007.1
20240225054730 53 203 3.0 10.0 0.01 0.30 0.04 92 1007.2
20240225054525 53 178 2.0 9.0 0.01 0.60 0.07 100 1007.2
20240225054217 53 278 4.0 10.0 0.01 0.30 0.04 93 1007.2
20240225054200 54 216 4.0 6.0 0.01 0.30 0.04 93 1007.3
20240225054024 53 223 2.0 8.0 0.01 0.60 0.07 100 1007.3
20240225053942 54 216 4.0 6.0 0.01 0.30 0.04 93 1007.3
20240225053923 54 178 2.0 6.0 0.01 0.30 0.04 94 1007.5
20240225053724 54 216 4.0 6.0 0.01 0.30 0.04 93 1007.3
20240225053700 54 178 2.0 6.0 0.01 0.30 0.04 94 1007.5
20240225053524 53 213 3.0 8.0 0.02 0.60 0.07 100 1007.4
20240225053441 54 178 2.0 6.0 0.01 0.30 0.04 94 1007.5
20240225053221 54 178 2.0 6.0 0.01 0.30 0.04 94 1007.5
20240225053026 53 232 2.0 10.0 0.02 0.60 0.07 100 1007.5
20240225052930 54 231 2.0 10.0 0.01 0.30 0.04 94 1007.7
20240225052714 54 231 2.0 10.0 0.01 0.30 0.04 94 1007.7
20240225052524 53 209 2.0 10.0 0.02 0.60 0.07 100 1007.7
20240225052429 54 186 2.0 10.0 0.01 0.30 0.04 93 1007.8
20240225052024 53 165 3.0 10.0 0.02 0.60 0.07 100 1007.8
20240225051724 54 199 4.0 11.0 0.01 0.30 0.04 94 1007.9
20240225051528 53 250 2.0 11.0 0.02 0.60 0.07 100 1007.7
20240225051247 54 223 5.0 10.0 0.01 0.30 0.04 94 1007.8
20240225051242 54 227 5.0 11.0 0.01 0.30 0.04 94 1007.8
20240225051026 53 209 5.0 11.0 0.02 0.60 0.07 100 1007.6
20240225050524 53 221 5.0 9.0 0.02 0.60 0.07 100 1007.6
20240225050201 54 230 2.0 7.0 0.02 0.30 0.04 95 1008.0
20240225050031 53 242 2.0 8.0 0.02 0.59 0.07 100 1007.9
20240225045704 54 209 3.0 6.0 0.01 0.30 0.03 94 1007.9
20240225045523 53 230 2.0 7.0 0.01 0.61 0.06 100 1007.8
20240225045202 54 227 3.0 7.0 0.01 0.30 0.03 94 1007.7
20240225045026 53 249 2.0 12.0 0.01 0.61 0.06 100 1007.6
20240225044707 54 178 3.0 7.0 0.01 0.31 0.03 94 1007.6
20240225044528 53 239 3.0 12.0 0.01 0.61 0.06 100 1007.5
20240225044429 54 241 2.0 7.0 0.01 0.31 0.03 94 1007.5
20240225044211 54 241 2.0 7.0 0.01 0.31 0.03 94 1007.5
20240225044027 54 133 1.0 7.0 0.01 0.61 0.06 100 1007.5
20240225043932 54 213 2.0 7.0 0.01 0.30 0.03 94 1007.7
20240225043524 54 137 2.0 7.0 0.00 0.60 0.05 100 1007.6
20240225043202 54 171 3.0 5.0 0.00 0.30 0.03 94 1007.7
20240225043032 54 219 2.0 6.0 0.00 0.60 0.05 100 1007.7
20240225042708 54 210 2.0 6.0 0.00 0.30 0.03 94 1007.8
20240225042526 54 217 2.0 6.0 0.00 0.60 0.05 100 1007.7
20240225042203 54 254 2.0 6.0 0.00 0.30 0.03 94 1007.7
20240225042023 54 108 2.0 6.0 0.00 0.60 0.05 100 1007.7
20240225041710 54 244 2.0 5.0 0.00 0.30 0.03 94 1007.9
20240225041537 54 219 2.0 6.0 0.00 0.60 0.05 100 1007.8
20240225041205 54 269 2.0 4.0 0.00 0.30 0.03 94 1007.7
20240225041027 54 195 1.0 9.0 0.00 0.60 0.05 100 1007.8
20240225040708 54 206 2.0 7.0 0.00 0.30 0.03 94 1007.9
20240225040524 54 218 2.0 10.0 0.00 0.60 0.05 100 1007.9
20240225040430 54 223 2.0 9.0 0.00 0.30 0.02 94 1008.1
20240225040029 54 232 2.0 10.0 0.00 0.59 0.04 100 1008.0
20240225035706 54 45 3.0 9.0 0.00 0.30 0.02 94 1008.0
20240225035524 54 207 3.0 10.0 0.00 0.60 0.04 100 1008.2
20240225035202 54 278 2.0 7.0 0.00 0.30 0.02 94 1008.3
20240225035027 54 221 1.0 10.0 0.00 0.60 0.04 100 1008.3
20240225034928 54 234 2.0 10.0 0.00 0.30 0.02 94 1008.0
20240225034545 54 115 2.0 10.0 0.00 0.60 0.04 100 1008.1
20240225034430 54 202 4.0 10.0 0.00 0.30 0.02 94 1008.2
20240225034025 54 235 1.0 5.0 0.00 0.60 0.04 100 1008.1
20240225033707 54 178 3.0 9.0 0.00 0.30 0.02 94 1008.2
20240225033524 54 198 2.0 9.0 0.00 0.60 0.04 100 1008.0
20240225033207 54 138 2.0 9.0 0.00 0.30 0.02 94 1008.0
20240225033030 54 230 2.0 9.0 0.00 0.60 0.04 100 1008.1
20240225032705 54 227 3.0 7.0 0.00 0.30 0.02 94 1008.1
20240225032526 54 217 3.0 7.0 0.00 0.60 0.04 100 1007.9
20240225032205 54 238 3.0 5.0 0.00 0.30 0.02 94 1007.9
20240225032024 54 202 2.0 5.0 0.00 0.60 0.04 100 1007.9
20240225031929 54 238 2.0 5.0 0.00 0.30 0.02 94 1008.0
20240225031530 54 165 2.0 10.0 0.00 0.60 0.04 100 1008.0
20240225031423 55 197 3.0 10.0 0.01 0.30 0.02 94 1008.1
20240225031209 55 197 3.0 10.0 0.01 0.30 0.02 94 1008.1
20240225031024 54 244 2.0 10.0 0.01 0.60 0.04 100 1008.0
20240225030710 54 233 5.0 10.0 0.01 0.30 0.02 94 1008.0
20240225030524 54 223 3.0 10.0 0.02 0.60 0.04 100 1007.9
20240225030424 55 183 2.0 9.0 0.01 0.30 0.02 94 1008.0
20240225030210 55 183 2.0 9.0 0.01 0.30 0.02 94 1008.0
20240225030034 54 201 3.0 11.0 0.02 0.60 0.04 100 1007.9
20240225025708 55 219 3.0 9.0 0.02 0.30 0.02 95 1008.1
20240225025524 54 209 4.0 11.0 0.03 0.60 0.04 100 1008.0
20240225025201 55 214 3.0 10.0 0.02 0.30 0.02 95 1008.2
20240225025027 54 235 2.0 10.0 0.03 0.60 0.04 100 1008.3
20240225024932 55 220 6.0 10.0 0.02 0.30 0.02 95 1008.3
20240225024709 55 220 6.0 10.0 0.02 0.30 0.02 95 1008.3
20240225024645 54 196 3.0 9.0 0.02 0.30 0.02 95 1008.4
20240225024524 54 233 2.0 10.0 0.03 0.60 0.04 100 1008.2
20240225024203 55 259 5.0 10.0 0.02 0.30 0.02 95 1008.5
20240225024154 54 196 3.0 9.0 0.02 0.30 0.02 95 1008.4
20240225024023 54 219 4.0 9.0 0.03 0.60 0.04 100 1008.4
20240225023937 54 196 3.0 9.0 0.02 0.30 0.02 95 1008.4
20240225023523 54 225 2.0 9.0 0.03 0.60 0.04 100 1008.5
20240225023204 54 255 4.0 9.0 0.01 0.30 0.02 95 1008.5
20240225023025 54 205 2.0 7.0 0.02 0.59 0.03 100 1008.5
20240225022704 54 228 2.0 5.0 0.01 0.30 0.02 95 1008.5
20240225022523 54 229 2.0 7.0 0.02 0.59 0.03 100 1008.7
20240225022201 54 227 2.0 5.0 0.01 0.30 0.02 95 1008.6
20240225022023 54 265 1.0 4.0 0.02 0.59 0.03 100 1008.7
20240225021708 54 157 2.0 4.0 0.02 0.30 0.02 95 1008.7
20240225021525 54 188 1.0 3.0 0.02 0.59 0.03 100 1008.9
20240225021202 55 233 2.0 5.0 0.01 0.30 0.02 95 1008.8
20240225021023 54 200 1.0 7.0 0.02 0.59 0.03 100 1009.0
20240225020705 55 223 1.0 7.0 0.01 0.29 0.01 95 1008.8
20240225020523 54 178 1.0 8.0 0.01 0.58 0.02 100 1009.0
20240225020207 55 219 2.0 7.0 0.01 0.29 0.01 95 1008.8
20240225020026 54 196 2.0 8.0 0.01 0.58 0.02 100 1009.1
20240225015932 55 206 2.0 5.0 0.00 0.29 0.01 94 1009.0
20240225015524 54 229 2.0 6.0 0.00 0.59 0.01 100 1009.1
20240225015437 55 220 2.0 10.0 0.00 0.29 0.01 94 1008.8
20240225015201 55 226 3.0 10.0 0.00 0.29 0.01 94 1009.0
20240225015024 54 226 1.0 10.0 0.00 0.59 0.01 100 1009.1
20240225014946 55 226 3.0 10.0 0.00 0.29 0.01 94 1009.0
20240225014929 55 220 2.0 5.0 0.00 0.29 0.01 94 1008.9
20240225014637 55 220 2.0 5.0 0.00 0.29 0.01 94 1008.9
20240225014531 54 165 4.0 10.0 0.00 0.59 0.01 100 1009.2
20240225014431 55 220 2.0 7.0 0.00 0.29 0.01 94 1008.9
20240225014416 55 220 2.0 5.0 0.00 0.29 0.01 94 1008.9
20240225014208 55 220 2.0 7.0 0.00 0.29 0.01 94 1008.9
20240225014156 55 220 2.0 5.0 0.00 0.29 0.01 94 1008.9
20240225014024 54 209 3.0 8.0 0.00 0.59 0.01 100 1009.0
20240225013933 55 220 2.0 5.0 0.00 0.29 0.01 94 1008.9
20240225013710 55 220 2.0 5.0 0.00 0.29 0.01 94 1008.9
20240225013523 54 196 2.0 5.0 0.00 0.59 0.01 100 1009.1
20240225013428 55 223 2.0 6.0 0.00 0.30 0.01 94 1009.0
20240225013206 55 223 2.0 6.0 0.00 0.30 0.01 94 1009.0
20240225013025 54 196 1.0 10.0 0.00 0.59 0.01 100 1009.1
20240225012707 55 135 1.0 10.0 0.00 0.30 0.01 94 1009.1
20240225012658 55 251 3.0 10.0 0.00 0.30 0.01 94 1009.2
20240225012524 54 193 2.0 10.0 0.00 0.59 0.01 100 1009.3
20240225012435 55 251 3.0 10.0 0.00 0.30 0.01 94 1009.2
20240225012205 55 251 3.0 10.0 0.00 0.30 0.01 94 1009.2
20240225012025 54 227 1.0 7.0 0.00 0.59 0.01 100 1009.3
20240225011929 55 117 1.0 7.0 0.00 0.29 0.00 94 1009.1
20240225011706 55 117 1.0 7.0 0.00 0.29 0.00 94 1009.1
20240225011534 54 239 2.0 11.0 0.00 0.58 0.00 100 1009.3
20240225011204 55 213 2.0 9.0 0.00 0.29 0.00 94 1009.3
20240225011027 54 225 3.0 11.0 0.00 0.58 0.00 100 1009.4
20240225010711 55 269 3.0 9.0 0.00 0.29 0.00 94 1009.3
20240225010523 54 242 4.0 12.0 0.00 0.58 0.00 100 1009.4
20240225010202 55 214 4.0 9.0 0.00 0.29 0.00 93 1009.3
20240225010030 54 202 3.0 12.0 0.00 0.58 0.00 100 1009.4
20240225005702 55 278 3.0 7.0 0.00 0.29 0.00 94 1009.1
20240225005523 54 0 1.0 5.0 0.00 0.58 0.00 100 1009.4
20240225005208 55 216 2.0 5.0 0.00 0.29 0.00 94 1009.3
20240225005024 54 178 2.0 9.0 0.00 0.58 0.00 100 1009.5
20240225004907 55 157 4.0 9.0 0.00 0.29 0.00 94 1009.4
20240225004705 55 217 3.0 10.0 0.00 0.29 0.00 94 1009.3
20240225004639 55 157 4.0 9.0 0.00 0.29 0.00 94 1009.4
20240225004546 54 221 2.0 9.0 0.00 0.58 0.00 100 1009.4
20240225004403 55 233 4.0 10.0 0.00 0.29 0.00 94 1009.4
20240225004023 54 225 4.0 9.0 0.00 0.58 0.00 100 1009.6
20240225003932 55 157 4.0 9.0 0.00 0.29 0.00 94 1009.4
20240225003719 55 157 4.0 9.0 0.00 0.29 0.00 94 1009.4
20240225003523 54 227 2.0 11.0 0.00 0.58 0.00 100 1009.7
20240225003202 55 230 3.0 12.0 0.00 0.29 0.00 94 1009.5
20240225003027 54 221 4.0 13.0 0.00 0.58 0.00 100 1009.7
20240225002938 55 245 5.0 13.0 0.00 0.29 0.00 94 1009.6
20240225002722 55 245 5.0 13.0 0.00 0.29 0.00 94 1009.6
20240225002524 54 230 3.0 13.0 0.00 0.58 0.00 100 1009.8
20240225002430 55 230 6.0 13.0 0.00 0.29 0.00 95 1009.7
20240225002204 55 230 6.0 13.0 0.00 0.29 0.00 95 1009.7
20240225002023 54 9 3.0 9.0 0.00 0.57 0.00 100 1009.9
20240225001930 55 231 3.0 9.0 0.00 0.29 0.00 95 1009.8
20240225001527 54 216 2.0 12.0 0.00 0.57 0.00 100 1010.0
20240225001204 55 202 3.0 12.0 0.00 0.29 0.00 95 1009.7
20240225001023 54 250 3.0 12.0 0.00 0.57 0.00 100 1009.8
20240225000707 55 219 5.0 12.0 0.00 0.29 0.00 95 1009.6
20240225000524 54 232 1.0 8.0 0.00 0.57 0.00 100 1009.8
20240225000429 55 223 2.0 7.0 0.00 0.29 0.00 95 1009.8
20240225000200 55 220 3.0 7.0 0.00 0.29 0.00 95 1009.8
20240225000031 54 226 2.0 8.0 0.00 0.57 0.00 100 1009.9
20240224235935 55 220 3.0 7.0 0.00 0.29 0.00 95 1009.8
20240224235525 54 188 2.0 7.0 0.00 0.58 0.00 100 1010.0
20240224235415 55 238 2.0 12.0 0.01 0.29 0.00 95 1009.5
20240224235401 55 262 2.0 5.0 0.00 0.29 0.00 95 1009.8
20240224235022 54 200 2.0 12.0 0.00 0.58 0.00 100 1009.9
20240224234937 55 238 2.0 12.0 0.01 0.29 0.00 95 1009.5
20240224234716 55 238 2.0 12.0 0.01 0.29 0.00 95 1009.5
20240224234700 55 248 2.0 12.0 0.01 0.29 0.00 95 1009.6
20240224234537 54 178 1.0 12.0 0.01 0.58 0.00 100 1009.7
20240224234433 55 248 2.0 12.0 0.01 0.29 0.00 95 1009.6
20240224234024 54 178 3.0 12.0 0.03 0.58 0.00 100 1009.9
20240224233930 55 199 3.0 9.0 0.02 0.29 0.00 95 1009.7
20240224233523 54 247 3.0 10.0 0.03 0.58 0.00 100 1010.0
20240224233202 55 186 2.0 11.0 0.02 0.29 0.00 95 1009.9
20240224233031 54 210 3.0 12.0 0.04 0.58 0.00 100 1010.0
20240224232705 55 230 6.0 11.0 0.03 0.29 0.00 95 1009.8
20240224232524 54 225 7.0 12.0 0.05 0.58 0.00 100 1009.9
20240224232437 55 219 7.0 13.0 0.04 0.29 0.00 96 1009.7
20240224232217 55 219 7.0 13.0 0.04 0.29 0.00 96 1009.7
20240224232207 55 244 6.0 13.0 0.04 0.29 0.00 96 1009.8
20240224232027 54 250 6.0 13.0 0.07 0.58 0.00 100 1010.0
20240224231535 54 246 5.0 13.0 0.08 0.58 0.00 100 1009.9
20240224231204 55 245 5.0 10.0 0.04 0.29 0.00 97 1009.8
20240224231026 54 230 4.0 10.0 0.08 0.58 0.00 100 1010.1
20240224230717 54 272 6.0 10.0 0.05 0.29 0.00 97 1009.9
20240224230524 54 238 4.0 11.0 0.11 0.58 0.00 100 1010.1
20240224230202 54 220 4.0 7.0 0.06 0.29 0.00 97 1010.0
20240224230028 53 248 3.0 11.0 0.11 0.58 0.00 100 1010.2
20240224225935 54 312 4.0 7.0 0.06 0.29 0.29 97 1010.1
20240224225656 53 310 3.0 6.0 0.06 0.29 0.29 97 1010.0
20240224225523 53 265 4.0 8.0 0.12 0.64 0.58 100 1010.2
20240224225433 53 310 3.0 6.0 0.06 0.29 0.29 97 1010.0
20240224225024 53 237 2.0 7.0 0.13 0.63 0.57 100 1010.3
20240224224929 53 223 3.0 6.0 0.06 0.28 0.28 97 1010.1
20240224224529 52 227 2.0 7.0 0.11 0.62 0.55 100 1010.4
20240224224205 52 219 4.0 4.0 0.07 0.28 0.28 96 1010.2
20240224224024 52 188 1.0 3.0 0.12 0.61 0.55 100 1010.4
20240224223709 52 193 2.0 3.0 0.07 0.27 0.28 96 1010.3
20240224223525 52 0 1.0 3.0 0.12 0.60 0.54 100 1010.5
20240224223202 52 210 1.0 3.0 0.07 0.27 0.27 96 1010.2
20240224223024 52 235 1.0 3.0 0.12 0.59 0.53 100 1010.5
20240224222710 52 241 1.0 4.0 0.06 0.27 0.26 96 1010.3
20240224222523 52 169 1.0 4.0 0.11 0.58 0.51 100 1010.5
20240224222206 52 178 2.0 4.0 0.06 0.28 0.26 96 1010.4
20240224222023 51 178 1.0 4.0 0.11 0.57 0.51 100 1010.5
20240224221708 52 258 2.0 3.0 0.06 0.28 0.25 96 1010.3
20240224221536 51 193 1.0 4.0 0.11 0.55 0.49 100 1010.6
20240224221202 52 178 1.0 3.0 0.06 0.28 0.25 96 1010.4
20240224221023 51 178 1.0 3.0 0.11 0.55 0.48 100 1010.6